createdAt,value
2023-06-11T00:02:00.968Z,100518.00
2023-06-11T00:04:31.092Z,100515.00
2023-06-11T00:07:00.239Z,100510.00
2023-06-11T00:09:27.664Z,100514.00
2023-06-11T00:11:55.249Z,100513.00
2023-06-11T00:14:23.980Z,100509.00
2023-06-11T00:16:51.772Z,100516.00
2023-06-11T00:19:20.299Z,100518.00
2023-06-11T00:21:49.414Z,100513.00
2023-06-11T00:24:17.982Z,100515.00
2023-06-11T00:26:45.950Z,100517.00
2023-06-11T00:29:13.454Z,100514.00
2023-06-11T00:31:41.020Z,100510.00
2023-06-11T00:34:08.429Z,100512.00
2023-06-11T00:36:36.519Z,100521.00
2023-06-11T00:39:04.342Z,100516.00
2023-06-11T00:41:32.548Z,100527.00
2023-06-11T00:44:00.906Z,100523.00
2023-06-11T00:46:28.343Z,100519.00
2023-06-11T00:48:56.256Z,100516.00
2023-06-11T00:51:25.246Z,100523.00
2023-06-11T00:53:53.911Z,100520.00
2023-06-11T00:56:21.513Z,100530.00
2023-06-11T00:58:50.524Z,100519.00
2023-06-11T01:01:29.957Z,100536.00
2023-06-11T01:04:00.894Z,100528.00
2023-06-11T01:06:33.678Z,100520.00
2023-06-11T01:09:01.613Z,100528.00
2023-06-11T01:11:33.291Z,100528.00
2023-06-11T01:14:01.432Z,100525.00
2023-06-11T01:16:37.495Z,100537.00
2023-06-11T01:19:32.704Z,100530.00
2023-06-11T01:22:09.510Z,100520.00
2023-06-11T01:24:56.052Z,100524.00
2023-06-11T01:27:34.913Z,100522.00
2023-06-11T01:30:05.007Z,100526.00
2023-06-11T01:32:33.479Z,100531.00
2023-06-11T01:35:02.319Z,100516.00
2023-06-11T01:37:30.226Z,100518.00
2023-06-11T01:39:57.875Z,100524.00
2023-06-11T01:42:25.377Z,100519.00
2023-06-11T01:44:52.713Z,100523.00
2023-06-11T01:47:21.584Z,100515.00
2023-06-11T01:49:48.950Z,100522.00
2023-06-11T01:52:16.880Z,100530.00
2023-06-11T01:54:44.275Z,100535.00
2023-06-11T01:57:11.608Z,100535.00
2023-06-11T01:59:38.978Z,100537.00
2023-06-11T02:02:06.522Z,100530.00
2023-06-11T02:04:34.825Z,100536.00
2023-06-11T02:07:02.194Z,100540.00
2023-06-11T02:09:29.650Z,100540.00
2023-06-11T02:11:57.096Z,100537.00
2023-06-11T02:14:24.593Z,100537.00
2023-06-11T02:16:52.058Z,100533.00
2023-06-11T02:19:19.485Z,100538.00
2023-06-11T02:21:47.662Z,100527.00
2023-06-11T02:24:16.021Z,100530.00
2023-06-11T02:26:43.474Z,100532.00
2023-06-11T02:29:10.852Z,100534.00
2023-06-11T02:31:38.300Z,100530.00
2023-06-11T02:34:05.774Z,100539.00
2023-06-11T02:36:33.260Z,100535.00
2023-06-11T02:39:01.394Z,100531.00
2023-06-11T02:41:28.799Z,100537.00
2023-06-11T02:43:56.336Z,100538.00
2023-06-11T02:46:24.035Z,100543.00
2023-06-11T02:48:51.555Z,100546.00
2023-06-11T02:51:19.004Z,100542.00
2023-06-11T02:53:46.432Z,100541.00
2023-06-11T02:56:14.720Z,100547.00
2023-06-11T02:58:42.137Z,100545.00
2023-06-11T03:01:09.578Z,100555.00
2023-06-11T03:03:37.018Z,100547.00
2023-06-11T03:06:04.587Z,100548.00
2023-06-11T03:08:31.994Z,100546.00
2023-06-11T03:10:59.398Z,100555.00
2023-06-11T03:13:27.535Z,100547.00
2023-06-11T03:15:55.753Z,100547.00
2023-06-11T03:18:23.381Z,100548.00
2023-06-11T03:20:50.892Z,100544.00
2023-06-11T03:23:18.368Z,100542.00
2023-06-11T03:25:45.906Z,100539.00
2023-06-11T03:28:13.261Z,100547.00
2023-06-11T03:30:41.452Z,100550.00
2023-06-11T03:33:08.897Z,100553.00
2023-06-11T03:35:36.351Z,100555.00
2023-06-11T03:38:03.733Z,100555.00
2023-06-11T03:40:31.188Z,100551.00
2023-06-11T03:43:00.703Z,100557.00
2023-06-11T03:45:28.687Z,100562.00
2023-06-11T03:47:58.516Z,100556.00
2023-06-11T03:50:25.966Z,100553.00
2023-06-11T03:52:53.344Z,100558.00
2023-06-11T03:55:21.173Z,100548.00
2023-06-11T03:57:48.715Z,100556.00
2023-06-11T04:00:16.679Z,100555.00
2023-06-11T04:02:44.215Z,100557.00
2023-06-11T04:05:12.887Z,100553.00
2023-06-11T04:07:40.605Z,100569.00
2023-06-11T04:10:09.071Z,100565.00
2023-06-11T04:12:36.439Z,100578.00
2023-06-11T04:15:04.253Z,100582.00
2023-06-11T04:17:31.660Z,100571.00
2023-06-11T04:19:59.006Z,100574.00
2023-06-11T04:22:27.129Z,100582.00
2023-06-11T04:24:54.480Z,100586.00
2023-06-11T04:27:22.444Z,100586.00
2023-06-11T04:29:53.443Z,100599.00
2023-06-11T04:32:21.477Z,100600.00
2023-06-11T04:34:49.312Z,100599.00
2023-06-11T04:37:17.414Z,100599.00
2023-06-11T04:39:45.502Z,100596.00
2023-06-11T04:42:14.946Z,100596.00
2023-06-11T04:44:42.284Z,100597.00
2023-06-11T04:47:11.459Z,100599.00
2023-06-11T04:49:41.039Z,100599.00
2023-06-11T04:52:08.954Z,100595.00
2023-06-11T04:54:36.305Z,100596.00
2023-06-11T04:57:05.924Z,100602.00
2023-06-11T04:59:33.253Z,100598.00
2023-06-11T05:02:02.301Z,100600.00
2023-06-11T05:04:29.752Z,100607.00
2023-06-11T05:06:58.341Z,100610.00
2023-06-11T05:09:25.763Z,100615.00
2023-06-11T05:11:53.179Z,100612.00
2023-06-11T05:14:21.192Z,100623.00
2023-06-11T05:16:51.426Z,100609.00
2023-06-11T05:19:18.879Z,100619.00
2023-06-11T05:21:47.334Z,100613.00
2023-06-11T05:24:20.419Z,100614.00
2023-06-11T05:26:48.250Z,100615.00
2023-06-11T05:29:15.623Z,100619.00
2023-06-11T05:31:43.803Z,100626.00
2023-06-11T05:34:11.382Z,100622.00
2023-06-11T05:36:38.775Z,100622.00
2023-06-11T05:39:06.383Z,100630.00
2023-06-11T05:41:33.823Z,100631.00
2023-06-11T05:44:01.419Z,100638.00
2023-06-11T05:46:29.391Z,100634.00
2023-06-11T05:48:58.129Z,100633.00
2023-06-11T05:51:25.530Z,100640.00
2023-06-11T05:53:52.983Z,100642.00
2023-06-11T05:56:20.341Z,100643.00
2023-06-11T05:58:47.681Z,100637.00
2023-06-11T06:01:15.713Z,100644.00
2023-06-11T06:03:43.279Z,100642.00
2023-06-11T06:06:11.402Z,100648.00
2023-06-11T06:08:38.925Z,100647.00
2023-06-11T06:11:06.271Z,100655.00
2023-06-11T06:13:33.574Z,100649.00
2023-06-11T06:16:01.031Z,100654.00
2023-06-11T06:18:29.381Z,100658.00
2023-06-11T06:20:59.453Z,100659.00
2023-06-11T06:23:27.721Z,100664.00
2023-06-11T06:25:55.159Z,100668.00
2023-06-11T06:28:22.560Z,100673.00
2023-06-11T06:30:50.526Z,100672.00
2023-06-11T06:33:18.409Z,100668.00
2023-06-11T06:35:46.000Z,100662.00
2023-06-11T06:38:13.514Z,100669.00
2023-06-11T06:40:41.605Z,100667.00
2023-06-11T06:43:09.057Z,100669.00
2023-06-11T06:45:37.202Z,100681.00
2023-06-11T06:48:05.529Z,100671.00
2023-06-11T06:50:33.037Z,100664.00
2023-06-11T06:53:00.541Z,100668.00
2023-06-11T06:55:30.570Z,100673.00
2023-06-11T06:57:58.948Z,100671.00
2023-06-11T07:00:26.332Z,100666.00
2023-06-11T07:02:53.886Z,100672.00
2023-06-11T07:05:21.364Z,100667.00
2023-06-11T07:07:48.825Z,100666.00
2023-06-11T07:10:17.728Z,100673.00
2023-06-11T07:12:45.114Z,100678.00
2023-06-11T07:15:16.436Z,100676.00
2023-06-11T07:17:45.956Z,100669.00
2023-06-11T07:20:14.145Z,100666.00
2023-06-11T07:22:42.017Z,100670.00
2023-06-11T07:25:10.138Z,100668.00
2023-06-11T07:27:37.588Z,100660.00
2023-06-11T07:30:05.893Z,100664.00
2023-06-11T07:32:34.008Z,100658.00
2023-06-11T07:35:01.621Z,100661.00
2023-06-11T07:37:28.984Z,100661.00
2023-06-11T07:39:56.432Z,100658.00
2023-06-11T07:42:23.896Z,100656.00
2023-06-11T07:44:51.253Z,100649.00
2023-06-11T07:47:18.567Z,100658.00
2023-06-11T07:49:46.860Z,100659.00
2023-06-11T07:52:14.241Z,100653.00
2023-06-11T07:54:42.035Z,100653.00
2023-06-11T07:57:10.807Z,100649.00
2023-06-11T07:59:38.606Z,100645.00
2023-06-11T08:02:06.890Z,100645.00
2023-06-11T08:04:34.504Z,100635.00
2023-06-11T08:07:02.760Z,100641.00
2023-06-11T08:09:31.119Z,100640.00
2023-06-11T08:11:58.626Z,100639.00
2023-06-11T08:14:25.981Z,100630.00
2023-06-11T08:16:53.448Z,100630.00
2023-06-11T08:19:20.993Z,100626.00
2023-06-11T08:21:48.519Z,100626.00
2023-06-11T08:24:17.440Z,100638.00
2023-06-11T08:26:44.893Z,100633.00
2023-06-11T08:29:12.458Z,100630.00
2023-06-11T08:31:39.860Z,100630.00
2023-06-11T08:34:08.534Z,100625.00
2023-06-11T08:36:44.224Z,100620.00
2023-06-11T08:39:11.619Z,100622.00
2023-06-11T08:41:39.809Z,100627.00
2023-06-11T08:44:07.137Z,100621.00
2023-06-11T08:46:36.401Z,100618.00
2023-06-11T08:49:07.205Z,100614.00
2023-06-11T08:51:38.310Z,100608.00
2023-06-11T08:54:07.585Z,100602.00
2023-06-11T08:56:35.507Z,100607.00
2023-06-11T08:59:04.791Z,100609.00
2023-06-11T09:01:32.152Z,100610.00
2023-06-11T09:03:59.749Z,100607.00
2023-06-11T09:06:28.459Z,100601.00
2023-06-11T09:09:00.227Z,100598.00
2023-06-11T09:11:33.388Z,100598.00
2023-06-11T09:14:00.878Z,100601.00
2023-06-11T09:16:29.582Z,100601.00
2023-06-11T09:18:59.372Z,100602.00
2023-06-11T09:21:26.741Z,100595.00
2023-06-11T09:23:54.138Z,100604.00
2023-06-11T09:26:21.731Z,100604.00
2023-06-11T09:28:51.045Z,100603.00
2023-06-11T09:31:22.199Z,100602.00
2023-06-11T09:33:52.809Z,100606.00
2023-06-11T09:36:23.097Z,100595.00
2023-06-11T09:38:50.974Z,100603.00
2023-06-11T09:41:22.616Z,100594.00
2023-06-11T09:43:52.827Z,100598.00
2023-06-11T09:46:24.001Z,100599.00
2023-06-11T09:48:53.167Z,100602.00
2023-06-11T09:51:24.141Z,100601.00
2023-06-11T09:53:53.359Z,100610.00
2023-06-11T09:56:20.952Z,100602.00
2023-06-11T09:58:49.825Z,100612.00
2023-06-11T10:01:18.577Z,100604.00
2023-06-11T10:03:46.231Z,100602.00
2023-06-11T10:06:17.795Z,100606.00
2023-06-11T10:08:49.267Z,100611.00
2023-06-11T10:11:20.433Z,100613.00
2023-06-11T10:13:58.200Z,100605.00
2023-06-11T10:16:26.199Z,100604.00
2023-06-11T10:19:03.443Z,100609.00
2023-06-11T10:21:37.614Z,100616.00
2023-06-11T10:24:05.780Z,100622.00
2023-06-11T10:26:36.819Z,100608.00
2023-06-11T10:29:11.867Z,100610.00
2023-06-11T10:31:40.853Z,100603.00
2023-06-11T10:34:08.313Z,100610.00
2023-06-11T10:36:39.331Z,100611.00
2023-06-11T10:39:09.327Z,100613.00
2023-06-11T10:41:40.290Z,100611.00
2023-06-11T10:44:08.298Z,100613.00
2023-06-11T10:46:46.172Z,100618.00
2023-06-11T10:49:15.357Z,100626.00
2023-06-11T10:51:44.074Z,100628.00
2023-06-11T10:54:11.448Z,100614.00
2023-06-11T10:56:39.309Z,100615.00
2023-06-11T10:59:09.583Z,100615.00
2023-06-11T11:01:37.606Z,100613.00
2023-06-11T11:04:05.557Z,100620.00
2023-06-11T11:06:35.418Z,100615.00
2023-06-11T11:09:03.903Z,100617.00
2023-06-11T11:11:31.422Z,100627.00
2023-06-11T11:14:01.829Z,100621.00
2023-06-11T11:16:30.082Z,100609.00
2023-06-11T11:18:57.560Z,100604.00
2023-06-11T11:21:29.709Z,100606.00
2023-06-11T11:23:57.320Z,100613.00
2023-06-11T11:26:26.929Z,100605.00
2023-06-11T11:28:54.752Z,100614.00
2023-06-11T11:31:24.917Z,100606.00
2023-06-11T11:33:52.331Z,100607.00
2023-06-11T11:36:19.962Z,100600.00
2023-06-11T11:38:48.388Z,100608.00
2023-06-11T11:41:23.041Z,100620.00
2023-06-11T11:43:51.773Z,100600.00
2023-06-11T11:46:22.691Z,100610.00
2023-06-11T11:48:54.058Z,100606.00
2023-06-11T11:51:21.560Z,100603.00
2023-06-11T11:53:52.166Z,100602.00
2023-06-11T11:56:19.546Z,100596.00
2023-06-11T11:58:47.137Z,100601.00
2023-06-11T12:01:22.280Z,100592.00
2023-06-11T12:03:57.820Z,100598.00
2023-06-11T12:06:25.735Z,100591.00
2023-06-11T12:08:53.364Z,100581.00
2023-06-11T12:11:20.971Z,100589.00
2023-06-11T12:13:48.353Z,100577.00
2023-06-11T12:16:15.845Z,100587.00
2023-06-11T12:18:43.859Z,100586.00
2023-06-11T12:21:11.468Z,100577.00
2023-06-11T12:23:38.824Z,100577.00
2023-06-11T12:26:06.300Z,100588.00
2023-06-11T12:28:33.645Z,100588.00
2023-06-11T12:31:01.127Z,100582.00
2023-06-11T12:33:28.468Z,100575.00
2023-06-11T12:35:56.529Z,100577.00
2023-06-11T12:38:24.269Z,100580.00
2023-06-11T12:40:52.656Z,100574.00
2023-06-11T12:43:20.093Z,100566.00
2023-06-11T12:45:47.450Z,100567.00
2023-06-11T12:48:15.296Z,100561.00
2023-06-11T12:50:42.870Z,100563.00
2023-06-11T12:53:11.743Z,100557.00
2023-06-11T12:55:39.100Z,100559.00
2023-06-11T12:58:07.105Z,100558.00
2023-06-11T13:00:34.739Z,100551.00
2023-06-11T13:03:02.236Z,100554.00
2023-06-11T13:05:29.703Z,100558.00
2023-06-11T13:07:58.676Z,100549.00
2023-06-11T13:10:26.938Z,100554.00
2023-06-11T13:12:55.575Z,100556.00
2023-06-11T13:15:23.055Z,100553.00
2023-06-11T13:17:50.866Z,100549.00
2023-06-11T13:20:20.966Z,100553.00
2023-06-11T13:22:49.416Z,100556.00
2023-06-11T13:25:17.047Z,100542.00
2023-06-11T13:27:45.172Z,100542.00
2023-06-11T13:30:13.564Z,100549.00
2023-06-11T13:32:41.413Z,100544.00
2023-06-11T13:35:09.512Z,100545.00
2023-06-11T13:37:36.983Z,100550.00
2023-06-11T13:40:05.217Z,100552.00
2023-06-11T13:42:32.632Z,100543.00
2023-06-11T13:45:05.308Z,100543.00
2023-06-11T13:47:32.971Z,100536.00
2023-06-11T13:50:00.541Z,100547.00
2023-06-11T13:52:28.367Z,100541.00
2023-06-11T13:54:55.754Z,100543.00
2023-06-11T13:57:27.998Z,100545.00
2023-06-11T13:59:55.526Z,100538.00
2023-06-11T14:02:23.772Z,100537.00
2023-06-11T14:04:52.721Z,100534.00
2023-06-11T14:07:20.396Z,100536.00
2023-06-11T14:09:48.081Z,100542.00
2023-06-11T14:12:15.581Z,100540.00
2023-06-11T14:14:42.962Z,100529.00
2023-06-11T14:17:11.715Z,100539.00
2023-06-11T14:19:39.886Z,100539.00
2023-06-11T14:22:10.163Z,100530.00
2023-06-11T14:24:37.537Z,100536.00
2023-06-11T14:27:05.902Z,100530.00
2023-06-11T14:29:33.277Z,100524.00
2023-06-11T14:32:01.150Z,100534.00
2023-06-11T14:34:28.563Z,100532.00
2023-06-11T14:36:56.544Z,100533.00
2023-06-11T14:39:24.683Z,100521.00
2023-06-11T14:41:52.187Z,100528.00
2023-06-11T14:44:19.609Z,100518.00
2023-06-11T14:46:47.072Z,100519.00
2023-06-11T14:49:19.960Z,100514.00
2023-06-11T14:51:47.464Z,100520.00
2023-06-11T14:54:16.054Z,100518.00
2023-06-11T14:56:43.516Z,100512.00
2023-06-11T14:59:12.012Z,100516.00
2023-06-11T15:01:41.872Z,100509.00
2023-06-11T15:04:11.758Z,100508.00
2023-06-11T15:06:40.030Z,100508.00
2023-06-11T15:09:07.471Z,100501.00
2023-06-11T15:11:36.144Z,100516.00
2023-06-11T15:14:05.312Z,100514.00
2023-06-11T15:16:32.724Z,100510.00
2023-06-11T15:19:00.285Z,100512.00
2023-06-11T15:21:27.698Z,100507.00
2023-06-11T15:23:55.049Z,100505.00
2023-06-11T15:26:22.404Z,100499.00
2023-06-11T15:28:50.569Z,100508.00
2023-06-11T15:31:18.200Z,100499.00
2023-06-11T15:33:45.596Z,100495.00
2023-06-11T15:36:13.052Z,100499.00
2023-06-11T15:38:40.381Z,100490.00
2023-06-11T15:41:12.396Z,100485.00
2023-06-11T15:43:41.143Z,100491.00
2023-06-11T15:46:09.293Z,100490.00
2023-06-11T15:48:36.733Z,100487.00
2023-06-11T15:51:04.397Z,100479.00
2023-06-11T15:53:32.040Z,100488.00
2023-06-11T15:55:59.365Z,100484.00
2023-06-11T15:58:27.020Z,100476.00
2023-06-11T16:00:54.479Z,100469.00
2023-06-11T16:03:22.733Z,100469.00
2023-06-11T16:05:50.499Z,100475.00
2023-06-11T16:08:18.186Z,100476.00
2023-06-11T16:10:45.570Z,100474.00
2023-06-11T16:13:12.986Z,100479.00
2023-06-11T16:15:40.492Z,100464.00
2023-06-11T16:18:07.920Z,100476.00
2023-06-11T16:20:36.307Z,100472.00
2023-06-11T16:23:06.987Z,100472.00
2023-06-11T16:25:34.600Z,100483.00
2023-06-11T16:28:02.025Z,100476.00
2023-06-11T16:30:31.209Z,100479.00
2023-06-11T16:32:58.809Z,100476.00
2023-06-11T16:35:26.461Z,100479.00
2023-06-11T16:37:54.713Z,100477.00
2023-06-11T16:40:22.214Z,100478.00
2023-06-11T16:42:49.789Z,100481.00
2023-06-11T16:45:17.242Z,100479.00
2023-06-11T16:47:44.722Z,100475.00
2023-06-11T16:50:12.790Z,100477.00
2023-06-11T16:52:40.446Z,100473.00
2023-06-11T16:55:10.789Z,100474.00
2023-06-11T16:57:38.348Z,100477.00
2023-06-11T17:00:07.324Z,100469.00
2023-06-11T17:02:34.856Z,100476.00
2023-06-11T17:05:02.444Z,100482.00
2023-06-11T17:07:29.838Z,100477.00
2023-06-11T17:09:57.282Z,100476.00
2023-06-11T17:12:25.676Z,100486.00
2023-06-11T17:14:54.500Z,100473.00
2023-06-11T17:17:23.224Z,100473.00
2023-06-11T17:19:50.862Z,100471.00
2023-06-11T17:22:18.529Z,100471.00
2023-06-11T17:24:48.353Z,100468.00
2023-06-11T17:27:15.899Z,100468.00
2023-06-11T17:29:44.205Z,100476.00
2023-06-11T17:32:11.943Z,100468.00
2023-06-11T17:34:40.708Z,100470.00
2023-06-11T17:37:08.424Z,100465.00
2023-06-11T17:39:35.976Z,100466.00
2023-06-11T17:42:03.702Z,100476.00
2023-06-11T17:44:31.368Z,100473.00
2023-06-11T17:46:59.536Z,100470.00
2023-06-11T17:49:26.986Z,100463.00
2023-06-11T17:51:54.364Z,100466.00
2023-06-11T17:54:21.718Z,100466.00
2023-06-11T17:56:49.069Z,100469.00
2023-06-11T17:59:16.765Z,100464.00
2023-06-11T18:01:44.242Z,100464.00
2023-06-11T18:04:13.326Z,100463.00
2023-06-11T18:06:40.837Z,100463.00
2023-06-11T18:09:08.290Z,100469.00
2023-06-11T18:11:36.257Z,100467.00
2023-06-11T18:14:32.213Z,100473.00
2023-06-11T18:16:59.586Z,100473.00
2023-06-11T18:19:27.804Z,100470.00
2023-06-11T18:21:55.225Z,100468.00
2023-06-11T18:24:23.103Z,100466.00
2023-06-11T18:26:50.464Z,100475.00
2023-06-11T18:29:17.853Z,100474.00
2023-06-11T18:31:45.332Z,100474.00
2023-06-11T18:34:12.766Z,100467.00
2023-06-11T18:36:40.816Z,100466.00
2023-06-11T18:39:08.218Z,100461.00
2023-06-11T18:41:35.582Z,100472.00
2023-06-11T18:44:03.156Z,100461.00
2023-06-11T18:46:30.735Z,100467.00
2023-06-11T18:48:58.149Z,100465.00
2023-06-11T18:51:25.947Z,100472.00
2023-06-11T18:53:54.073Z,100465.00
2023-06-11T18:56:21.596Z,100479.00
2023-06-11T18:58:49.406Z,100475.00
2023-06-11T19:01:16.908Z,100477.00
2023-06-11T19:03:45.144Z,100485.00
2023-06-11T19:06:12.886Z,100476.00
2023-06-11T19:08:40.261Z,100482.00
2023-06-11T19:11:08.352Z,100485.00
2023-06-11T19:13:39.392Z,100486.00
2023-06-11T19:16:07.052Z,100490.00
2023-06-11T19:18:34.566Z,100479.00
2023-06-11T19:21:02.048Z,100483.00
2023-06-11T19:23:29.438Z,100476.00
2023-06-11T19:25:59.904Z,100488.00
2023-06-11T19:28:27.985Z,100481.00
2023-06-11T19:30:55.553Z,100489.00
2023-06-11T19:33:23.824Z,100490.00
2023-06-11T19:35:51.271Z,100500.00
2023-06-11T19:38:19.159Z,100500.00
2023-06-11T19:40:46.559Z,100506.00
2023-06-11T19:43:14.064Z,100506.00
2023-06-11T19:45:42.276Z,100506.00
2023-06-11T19:48:09.849Z,100508.00
2023-06-11T19:50:37.447Z,100515.00
2023-06-11T19:53:04.932Z,100508.00
2023-06-11T19:55:32.570Z,100520.00
2023-06-11T19:58:00.465Z,100520.00
2023-06-11T20:00:27.922Z,100519.00
2023-06-11T20:02:56.115Z,100522.00
2023-06-11T20:05:41.412Z,100526.00
2023-06-11T20:08:14.033Z,100524.00
2023-06-11T20:10:41.725Z,100527.00
2023-06-11T20:13:09.089Z,100539.00
2023-06-11T20:15:36.463Z,100545.00
2023-06-11T20:18:04.916Z,100547.00
2023-06-11T20:20:32.353Z,100543.00
2023-06-11T20:22:59.660Z,100542.00
2023-06-11T20:25:28.193Z,100536.00
2023-06-11T20:27:55.780Z,100534.00
2023-06-11T20:30:23.195Z,100544.00
2023-06-11T20:32:50.631Z,100542.00
2023-06-11T20:35:18.857Z,100549.00
2023-06-11T20:37:46.257Z,100546.00
2023-06-11T20:40:14.139Z,100550.00
2023-06-11T20:42:41.921Z,100541.00
2023-06-11T20:45:10.176Z,100548.00
2023-06-11T20:47:37.831Z,100547.00
2023-06-11T20:50:06.696Z,100550.00
2023-06-11T20:52:35.015Z,100550.00
2023-06-11T20:55:02.504Z,100548.00
2023-06-11T20:57:29.953Z,100550.00
2023-06-11T20:59:57.592Z,100545.00
2023-06-11T21:02:25.191Z,100548.00
2023-06-11T21:04:52.618Z,100535.00
2023-06-11T21:07:20.050Z,100548.00
2023-06-11T21:09:49.677Z,100544.00
2023-06-11T21:12:18.877Z,100545.00
2023-06-11T21:14:46.399Z,100541.00
2023-06-11T21:17:13.813Z,100541.00
2023-06-11T21:19:41.238Z,100546.00
2023-06-11T21:22:08.668Z,100552.00
2023-06-11T21:24:36.102Z,100545.00
2023-06-11T21:27:05.644Z,100545.00
2023-06-11T21:29:33.100Z,100550.00
2023-06-11T21:32:00.802Z,100562.00
2023-06-11T21:34:28.305Z,100558.00
2023-06-11T21:36:55.728Z,100559.00
2023-06-11T21:39:23.059Z,100565.00
2023-06-11T21:41:52.484Z,100564.00
2023-06-11T21:44:21.686Z,100564.00
2023-06-11T21:46:49.162Z,100570.00
2023-06-11T21:49:16.608Z,100570.00
2023-06-11T21:51:45.403Z,100567.00
2023-06-11T21:54:12.783Z,100558.00
2023-06-11T21:56:40.234Z,100568.00
2023-06-11T21:59:07.604Z,100557.00
2023-06-11T22:01:35.777Z,100564.00
2023-06-11T22:04:03.647Z,100558.00
2023-06-11T22:06:33.813Z,100562.00
2023-06-11T22:09:01.309Z,100563.00
2023-06-11T22:11:29.277Z,100550.00
2023-06-11T22:13:57.567Z,100552.00
2023-06-11T22:16:24.977Z,100554.00
2023-06-11T22:18:53.321Z,100557.00
2023-06-11T22:21:22.051Z,100561.00
2023-06-11T22:23:51.381Z,100556.00
2023-06-11T22:26:21.694Z,100557.00
2023-06-11T22:28:49.011Z,100568.00
2023-06-11T22:31:16.401Z,100564.00
2023-06-11T22:33:44.262Z,100573.00
2023-06-11T22:36:12.294Z,100570.00
2023-06-11T22:38:39.612Z,100569.00
2023-06-11T22:41:08.651Z,100567.00
2023-06-11T22:43:36.009Z,100568.00
2023-06-11T22:46:03.393Z,100575.00
2023-06-11T22:48:30.786Z,100572.00
2023-06-11T22:50:58.219Z,100565.00
2023-06-11T22:53:28.138Z,100573.00
2023-06-11T22:55:56.799Z,100571.00
2023-06-11T22:58:24.185Z,100571.00
2023-06-11T23:00:51.593Z,100563.00
2023-06-11T23:03:19.062Z,100562.00
2023-06-11T23:05:46.436Z,100573.00
2023-06-11T23:08:13.773Z,100572.00
2023-06-11T23:10:41.867Z,100567.00
2023-06-11T23:13:09.265Z,100573.00
2023-06-11T23:15:36.671Z,100568.00
2023-06-11T23:18:07.214Z,100579.00
2023-06-11T23:20:35.299Z,100569.00
2023-06-11T23:23:05.847Z,100577.00
2023-06-11T23:25:34.052Z,100572.00
2023-06-11T23:28:02.044Z,100571.00
2023-06-11T23:30:29.883Z,100569.00
2023-06-11T23:32:59.916Z,100565.00
2023-06-11T23:35:27.432Z,100564.00
2023-06-11T23:37:56.961Z,100565.00
2023-06-11T23:40:24.528Z,100550.00
2023-06-11T23:42:51.889Z,100550.00
2023-06-11T23:45:20.192Z,100559.00
2023-06-11T23:47:47.671Z,100555.00
2023-06-11T23:50:15.721Z,100546.00
2023-06-11T23:52:43.504Z,100545.00
2023-06-11T23:55:10.820Z,100549.00
2023-06-11T23:57:39.452Z,100539.00
